createdAt,value
2019-05-03T00:00:16.617Z,26.40
2019-05-03T00:02:52.265Z,27.07
2019-05-03T00:05:41.886Z,28.20
2019-05-03T00:08:12.668Z,30.82
2019-05-03T00:10:42.620Z,27.87
2019-05-03T00:13:12.656Z,27.10
2019-05-03T00:15:52.697Z,28.00
2019-05-03T00:18:22.231Z,29.35
2019-05-03T00:20:52.676Z,27.25
2019-05-03T00:23:22.827Z,25.52
2019-05-03T00:25:52.510Z,31.70
2019-05-03T00:28:21.951Z,27.40
2019-05-03T00:30:51.861Z,28.98
2019-05-03T00:33:22.489Z,28.45
2019-05-03T00:36:02.635Z,30.20
2019-05-03T00:38:32.521Z,26.77
2019-05-03T00:41:02.183Z,31.37
2019-05-03T00:43:31.813Z,30.37
2019-05-03T00:46:02.053Z,33.05
2019-05-03T00:48:32.603Z,32.08
2019-05-03T00:51:02.510Z,31.85
2019-05-03T00:53:31.925Z,31.70
2019-05-03T00:56:01.837Z,31.90
2019-05-03T00:58:31.807Z,34.38
2019-05-03T01:01:02.656Z,31.87
2019-05-03T01:03:32.683Z,34.67
2019-05-03T01:06:02.400Z,38.38
2019-05-03T01:08:32.721Z,37.55
2019-05-03T01:11:02.300Z,28.55
2019-05-03T01:13:32.049Z,32.55
2019-05-03T01:16:05.670Z,33.75
2019-05-03T01:18:35.077Z,34.45
2019-05-03T01:21:04.787Z,34.90
2019-05-03T01:23:34.209Z,38.33
2019-05-03T01:26:03.583Z,36.20
2019-05-03T01:28:32.923Z,33.90
2019-05-03T01:31:02.667Z,37.05
2019-05-03T01:33:32.361Z,33.80
2019-05-03T01:36:02.726Z,40.12
2019-05-03T01:38:32.312Z,40.08
2019-05-03T01:41:01.951Z,36.73
2019-05-03T01:43:31.741Z,33.18
2019-05-03T01:46:02.691Z,34.13
2019-05-03T01:48:49.383Z,35.30
2019-05-03T01:51:26.012Z,35.33
2019-05-03T01:53:55.348Z,39.42
2019-05-03T01:56:24.781Z,39.00
2019-05-03T01:58:54.190Z,36.35
2019-05-03T02:01:42.182Z,35.30
2019-05-03T02:04:13.179Z,36.75
2019-05-03T02:06:42.591Z,34.05
2019-05-03T02:09:12.269Z,34.10
2019-05-03T02:11:42.242Z,35.30
2019-05-03T02:14:12.339Z,40.28
2019-05-03T02:16:42.120Z,40.00
2019-05-03T02:19:12.621Z,35.48
2019-05-03T02:21:42.350Z,35.08
2019-05-03T02:24:11.947Z,35.23
2019-05-03T02:26:42.525Z,33.05
2019-05-03T02:29:12.572Z,29.82
2019-05-03T02:31:43.664Z,34.65
2019-05-03T02:34:13.247Z,38.53
2019-05-03T02:36:42.987Z,34.58
2019-05-03T02:39:14.207Z,42.13
2019-05-03T02:41:46.012Z,39.38
2019-05-03T02:44:16.290Z,41.25
2019-05-03T02:46:50.183Z,40.78
2019-05-03T02:49:26.599Z,43.70
2019-05-03T02:51:56.039Z,49.20
2019-05-03T02:54:26.872Z,44.85
2019-05-03T02:56:56.626Z,46.88
2019-05-03T02:59:26.547Z,41.65
2019-05-03T03:01:57.412Z,47.38
2019-05-03T03:04:28.030Z,38.70
2019-05-03T03:06:58.537Z,42.70
2019-05-03T03:09:28.924Z,41.60
2019-05-03T03:12:00.407Z,45.20
2019-05-03T03:14:33.146Z,47.43
2019-05-03T03:17:06.698Z,43.40
2019-05-03T03:19:39.604Z,46.37
2019-05-03T03:22:11.395Z,44.30
2019-05-03T03:24:45.755Z,51.02
2019-05-03T03:27:19.668Z,45.38
2019-05-03T03:29:55.263Z,50.98
2019-05-03T03:32:30.120Z,47.53
2019-05-03T03:35:12.436Z,51.53
2019-05-03T03:37:41.373Z,51.45
2019-05-03T03:40:10.873Z,66.55
2019-05-03T03:42:41.379Z,54.30
2019-05-03T03:45:11.127Z,56.02
2019-05-03T03:47:40.847Z,52.90
2019-05-03T03:50:10.699Z,52.70
2019-05-03T03:52:42.166Z,52.17
2019-05-03T03:55:12.010Z,55.12
2019-05-03T03:57:41.643Z,51.35
2019-05-03T04:00:11.210Z,52.05
2019-05-03T04:02:40.658Z,46.80
2019-05-03T04:05:10.844Z,47.20
2019-05-03T04:07:40.352Z,49.25
2019-05-03T04:10:10.940Z,52.85
2019-05-03T04:12:42.020Z,50.08
2019-05-03T04:15:15.905Z,51.75
2019-05-03T04:17:46.034Z,50.90
2019-05-03T04:20:17.161Z,44.40
2019-05-03T04:22:46.699Z,50.30
2019-05-03T04:25:16.131Z,50.05
2019-05-03T04:27:45.911Z,45.40
2019-05-03T04:30:16.641Z,47.70
2019-05-03T04:32:46.197Z,46.60
2019-05-03T04:35:16.542Z,48.55
2019-05-03T04:37:46.013Z,48.50
2019-05-03T04:40:15.923Z,52.20
2019-05-03T04:42:46.607Z,51.02
2019-05-03T04:45:16.813Z,53.05
2019-05-03T04:47:46.595Z,52.55
2019-05-03T04:50:16.729Z,54.23
2019-05-03T04:52:46.574Z,49.77
2019-05-03T04:55:16.361Z,51.80
2019-05-03T04:57:50.107Z,50.95
2019-05-03T05:00:17.464Z,51.15
2019-05-03T05:02:46.814Z,50.20
2019-05-03T05:05:16.450Z,51.10
2019-05-03T05:07:46.065Z,48.60
2019-05-03T05:10:15.707Z,55.43
2019-05-03T05:12:45.735Z,46.60
2019-05-03T05:15:16.173Z,48.90
2019-05-03T05:17:49.922Z,51.55
2019-05-03T05:20:26.862Z,55.05
2019-05-03T05:22:56.232Z,50.95
2019-05-03T05:25:27.254Z,48.50
2019-05-03T05:27:58.236Z,54.58
2019-05-03T05:30:27.968Z,51.37
2019-05-03T05:32:57.377Z,48.35
2019-05-03T05:35:26.772Z,46.50
2019-05-03T05:37:56.114Z,56.42
2019-05-03T05:40:25.921Z,51.00
2019-05-03T05:42:55.265Z,58.85
2019-05-03T05:45:24.757Z,50.63
2019-05-03T05:47:55.769Z,48.25
2019-05-03T05:50:29.908Z,49.93
2019-05-03T05:52:59.314Z,51.40
2019-05-03T05:55:42.349Z,56.65
2019-05-03T05:58:15.577Z,54.93
2019-05-03T06:00:46.131Z,49.60
2019-05-03T06:03:15.790Z,51.55
2019-05-03T06:05:45.207Z,51.08
2019-05-03T06:08:16.191Z,52.65
2019-05-03T06:10:47.213Z,52.45
2019-05-03T06:13:20.906Z,51.28
2019-05-03T06:15:54.853Z,52.90
2019-05-03T06:18:25.990Z,55.15
2019-05-03T06:21:05.640Z,65.20
2019-05-03T06:23:36.625Z,60.88
2019-05-03T06:26:07.717Z,74.27
2019-05-03T06:28:37.138Z,57.83
2019-05-03T06:31:14.904Z,55.23
2019-05-03T06:33:45.027Z,53.40
2019-05-03T06:36:15.281Z,87.33
2019-05-03T06:38:44.843Z,67.55
2019-05-03T06:41:15.015Z,98.37
2019-05-03T06:43:48.553Z,69.65
2019-05-03T06:46:18.238Z,100.45
2019-05-03T06:48:46.906Z,85.17
2019-05-03T06:51:20.047Z,71.47
2019-05-03T06:53:50.504Z,92.47
2019-05-03T06:56:19.282Z,76.28
2019-05-03T06:58:49.587Z,90.80
2019-05-03T07:01:29.110Z,78.25
2019-05-03T07:04:01.400Z,83.05
2019-05-03T07:06:39.428Z,108.78
2019-05-03T07:09:19.780Z,65.67
2019-05-03T07:11:49.152Z,72.08
2019-05-03T07:14:18.518Z,70.57
2019-05-03T07:16:47.891Z,62.90
2019-05-03T07:19:17.305Z,59.65
2019-05-03T07:21:46.677Z,62.58
2019-05-03T07:24:16.031Z,74.00
2019-05-03T07:26:45.434Z,67.17
2019-05-03T07:29:15.307Z,51.68
2019-05-03T07:31:44.820Z,53.08
2019-05-03T07:34:15.583Z,51.63
2019-05-03T07:36:45.193Z,50.98
2019-05-03T07:39:14.676Z,48.92
2019-05-03T07:41:44.681Z,51.85
2019-05-03T07:44:15.192Z,53.05
2019-05-03T07:46:45.234Z,51.68
2019-05-03T07:49:15.317Z,48.50
2019-05-03T07:51:47.030Z,59.05
2019-05-03T07:54:16.401Z,51.60
2019-05-03T07:56:47.394Z,50.70
2019-05-03T07:59:16.847Z,47.50
2019-05-03T08:01:47.849Z,47.53
2019-05-03T08:04:17.291Z,41.23
2019-05-03T08:06:46.723Z,43.17
2019-05-03T08:09:16.155Z,40.35
2019-05-03T08:11:45.575Z,37.60
2019-05-03T08:14:17.990Z,39.75
2019-05-03T08:16:46.006Z,35.70
2019-05-03T08:19:15.426Z,39.35
2019-05-03T08:21:45.313Z,34.08
2019-05-03T08:24:15.107Z,33.67
2019-05-03T08:26:45.368Z,35.78
2019-05-03T08:29:18.559Z,27.60
2019-05-03T08:31:47.634Z,28.92
2019-05-03T08:34:18.666Z,22.82
2019-05-03T08:36:54.352Z,22.55
2019-05-03T08:39:25.293Z,22.93
2019-05-03T08:42:05.641Z,22.22
2019-05-03T08:44:35.471Z,18.77
2019-05-03T08:47:05.380Z,20.45
2019-05-03T08:49:35.007Z,23.52
2019-05-03T08:52:05.507Z,21.57
2019-05-03T08:54:35.086Z,20.32
2019-05-03T08:57:06.283Z,22.93
2019-05-03T08:59:35.900Z,16.05
2019-05-03T09:02:13.967Z,202.03
2019-05-03T09:04:40.606Z,17.40
2019-05-03T09:07:08.960Z,16.07
2019-05-03T09:09:39.987Z,19.73
2019-05-03T09:12:09.615Z,20.15
2019-05-03T09:14:45.251Z,58.23
2019-05-03T09:17:10.606Z,16.27
2019-05-03T09:19:40.225Z,18.42
2019-05-03T09:22:09.598Z,20.32
2019-05-03T09:24:58.616Z,18.20
2019-05-03T09:27:28.520Z,157.27
2019-05-03T09:29:58.521Z,20.85
2019-05-03T09:32:28.164Z,16.77
2019-05-03T09:34:57.832Z,28.25
2019-05-03T09:37:27.566Z,17.75
2019-05-03T09:39:57.453Z,19.98
2019-05-03T09:42:27.323Z,18.77
2019-05-03T09:44:57.324Z,18.12
2019-05-03T09:47:29.232Z,17.32
2019-05-03T09:50:02.205Z,16.07
2019-05-03T09:52:32.005Z,17.80
2019-05-03T09:55:05.228Z,14.98
2019-05-03T09:57:35.004Z,13.93
2019-05-03T10:00:06.811Z,14.47
2019-05-03T10:02:36.570Z,16.80
2019-05-03T10:05:07.070Z,22.13
2019-05-03T10:07:43.108Z,22.40
2019-05-03T10:10:12.564Z,18.62
2019-05-03T10:12:42.325Z,18.52
2019-05-03T10:15:15.233Z,19.27
2019-05-03T10:17:45.982Z,18.20
2019-05-03T10:20:16.863Z,15.35
2019-05-03T10:22:46.284Z,20.48
2019-05-03T10:25:16.058Z,18.23
2019-05-03T10:27:45.874Z,16.57
2019-05-03T10:30:19.779Z,17.77
2019-05-03T10:32:50.762Z,15.08
2019-05-03T10:35:20.197Z,14.20
2019-05-03T10:37:49.545Z,14.03
2019-05-03T10:40:25.457Z,13.75
2019-05-03T10:42:55.506Z,15.35
2019-05-03T10:45:27.909Z,18.07
2019-05-03T10:47:56.151Z,16.55
2019-05-03T10:50:25.609Z,13.65
2019-05-03T10:52:56.594Z,14.83
2019-05-03T10:55:25.968Z,11.30
2019-05-03T10:58:13.202Z,13.40
2019-05-03T11:00:50.284Z,16.95
2019-05-03T11:03:16.911Z,21.50
2019-05-03T11:05:46.284Z,20.75
2019-05-03T11:08:15.969Z,27.15
2019-05-03T11:10:45.385Z,25.23
2019-05-03T11:13:15.418Z,24.98
2019-05-03T11:15:45.122Z,26.17
2019-05-03T11:18:14.830Z,26.57
2019-05-03T11:20:45.327Z,23.18
2019-05-03T11:23:14.787Z,19.00
2019-05-03T11:25:45.246Z,17.90
2019-05-03T11:28:19.611Z,19.82
2019-05-03T11:30:56.484Z,18.52
2019-05-03T11:33:36.670Z,16.65
2019-05-03T11:36:16.942Z,18.42
2019-05-03T11:38:46.517Z,13.38
2019-05-03T11:41:29.176Z,15.70
2019-05-03T11:43:47.021Z,15.85
2019-05-03T11:46:17.164Z,15.43
2019-05-03T11:48:46.744Z,17.92
2019-05-03T11:51:16.088Z,14.30
2019-05-03T11:53:45.465Z,15.18
2019-05-03T11:56:14.984Z,9.35
2019-05-03T11:58:45.709Z,10.90
2019-05-03T12:01:19.944Z,12.53
2019-05-03T12:03:48.419Z,9.83
2019-05-03T12:06:17.896Z,9.18
2019-05-03T12:08:47.264Z,11.68
2019-05-03T12:11:16.693Z,11.22
2019-05-03T12:13:46.146Z,9.43
2019-05-03T12:16:21.660Z,11.33
2019-05-03T12:18:53.316Z,10.95
2019-05-03T12:21:19.265Z,11.40
2019-05-03T12:23:49.725Z,9.33
2019-05-03T12:26:20.268Z,13.38
2019-05-03T12:28:50.072Z,10.70
2019-05-03T12:31:33.417Z,16.87
2019-05-03T12:33:50.589Z,16.87
2019-05-03T12:36:19.935Z,13.53
2019-05-03T12:38:49.317Z,20.25
2019-05-03T12:41:18.792Z,8.05
2019-05-03T12:43:48.165Z,9.70
2019-05-03T12:46:17.558Z,13.15
2019-05-03T12:48:46.930Z,9.88
2019-05-03T12:51:16.264Z,13.75
2019-05-03T12:53:46.534Z,9.70
2019-05-03T12:56:22.739Z,10.98
2019-05-03T12:58:55.188Z,10.00
2019-05-03T13:01:40.594Z,8.08
2019-05-03T13:04:11.009Z,5.75
2019-05-03T13:06:42.060Z,5.62
2019-05-03T13:09:11.596Z,7.17
2019-05-03T13:11:53.025Z,8.53
2019-05-03T13:14:15.728Z,6.22
2019-05-03T13:16:49.325Z,5.83
2019-05-03T13:19:18.691Z,5.92
2019-05-03T13:21:48.035Z,5.65
2019-05-03T13:24:23.112Z,7.40
2019-05-03T13:26:48.551Z,7.45
2019-05-03T13:29:17.902Z,4.15
2019-05-03T13:31:58.359Z,4.53
2019-05-03T13:34:18.421Z,4.95
2019-05-03T13:36:47.765Z,6.05
2019-05-03T13:39:17.135Z,7.67
2019-05-03T13:41:46.471Z,6.70
2019-05-03T13:44:15.874Z,5.80
2019-05-03T13:46:45.185Z,6.22
2019-05-03T13:49:15.910Z,6.65
2019-05-03T13:51:45.407Z,6.42
2019-05-03T13:54:15.110Z,11.93
2019-05-03T13:56:44.408Z,4.67
2019-05-03T13:59:19.814Z,5.28
2019-05-03T14:01:45.215Z,7.47
2019-05-03T14:04:14.899Z,4.28
2019-05-03T14:06:44.787Z,5.58
2019-05-03T14:09:14.343Z,6.15
2019-05-03T14:11:44.802Z,4.87
2019-05-03T14:14:15.265Z,4.30
2019-05-03T14:16:45.171Z,5.20
2019-05-03T14:19:25.440Z,5.22
2019-05-03T14:21:58.941Z,9.30
2019-05-03T14:24:28.394Z,9.55
2019-05-03T14:26:57.777Z,3.72
2019-05-03T14:29:27.221Z,3.33
2019-05-03T14:31:56.622Z,3.70
2019-05-03T14:34:26.011Z,6.90
2019-05-03T14:36:55.595Z,4.20
2019-05-03T14:39:25.428Z,3.25
2019-05-03T14:41:55.562Z,4.78
2019-05-03T14:44:25.404Z,3.58
2019-05-03T14:46:58.688Z,3.22
2019-05-03T14:49:25.916Z,10.08
2019-05-03T14:51:56.772Z,4.40
2019-05-03T14:54:27.986Z,4.87
2019-05-03T14:57:05.163Z,4.87
2019-05-03T14:59:45.468Z,4.55
2019-05-03T15:02:24.467Z,2.85
2019-05-03T15:04:54.817Z,2.00
2019-05-03T15:07:25.526Z,1.90
2019-05-03T15:09:55.389Z,5.25
2019-05-03T15:12:25.300Z,1.80
2019-05-03T15:14:54.769Z,5.25
2019-05-03T15:17:24.757Z,2.70
2019-05-03T15:19:54.714Z,3.45
2019-05-03T15:22:25.322Z,1.90
2019-05-03T15:24:54.875Z,4.65
2019-05-03T15:27:24.765Z,2.52
2019-05-03T15:29:55.582Z,3.05
2019-05-03T15:32:25.023Z,1.95
2019-05-03T15:34:59.615Z,1.98
2019-05-03T15:37:29.316Z,2.47
2019-05-03T15:39:58.802Z,2.52
2019-05-03T15:42:28.616Z,3.10
2019-05-03T15:45:17.893Z,5.08
2019-05-03T15:47:57.600Z,4.87
2019-05-03T15:50:27.450Z,3.35
2019-05-03T15:52:56.877Z,3.65
2019-05-03T15:55:26.247Z,3.55
2019-05-03T15:57:55.693Z,3.95
2019-05-03T16:00:26.182Z,3.80
2019-05-03T16:02:58.480Z,5.75
2019-05-03T16:05:26.689Z,3.42
2019-05-03T16:07:56.197Z,2.98
2019-05-03T16:10:25.606Z,2.12
2019-05-03T16:12:54.962Z,3.10
2019-05-03T16:15:24.722Z,3.08
2019-05-03T16:17:54.897Z,5.70
2019-05-03T16:20:25.105Z,6.35
2019-05-03T16:22:54.920Z,6.37
2019-05-03T16:25:25.304Z,3.27
2019-05-03T16:27:56.495Z,4.15
2019-05-03T16:30:36.399Z,4.05
2019-05-03T16:33:04.818Z,7.35
2019-05-03T16:35:34.932Z,3.05
2019-05-03T16:38:06.126Z,4.17
2019-05-03T16:40:35.671Z,5.37
2019-05-03T16:43:05.136Z,5.55
2019-05-03T16:45:35.125Z,4.65
2019-05-03T16:48:05.201Z,4.10
2019-05-03T16:50:34.709Z,5.12
2019-05-03T16:53:05.554Z,2.70
2019-05-03T16:55:35.346Z,3.70
2019-05-03T16:58:07.453Z,4.92
2019-05-03T17:00:37.184Z,7.15
2019-05-03T17:03:06.762Z,9.95
2019-05-03T17:05:45.109Z,18.30
2019-05-03T17:08:31.154Z,29.67
2019-05-03T17:11:05.673Z,3.80
2019-05-03T17:13:36.836Z,11.03
2019-05-03T17:16:07.166Z,2.80
2019-05-03T17:18:36.681Z,19.92
2019-05-03T17:21:07.073Z,18.27
2019-05-03T17:23:36.761Z,30.48
2019-05-03T17:26:06.165Z,6.92
2019-05-03T17:28:35.599Z,4.03
2019-05-03T17:31:05.090Z,5.33
2019-05-03T17:33:34.903Z,5.47
2019-05-03T17:36:05.104Z,5.90
2019-05-03T17:38:35.311Z,4.85
2019-05-03T17:41:18.817Z,6.37
2019-05-03T17:46:18.754Z,6.90
2019-05-03T17:48:48.130Z,14.87
2019-05-03T17:51:35.529Z,5.83
2019-05-03T17:54:06.719Z,6.70
2019-05-03T17:56:37.704Z,7.58
2019-05-03T17:59:08.710Z,10.60
2019-05-03T18:01:45.929Z,10.48
2019-05-03T18:04:16.962Z,5.12
2019-05-03T18:07:04.619Z,6.37
2019-05-03T18:09:35.702Z,4.20
2019-05-03T18:12:06.239Z,5.45
2019-05-03T18:14:35.599Z,4.25
2019-05-03T18:17:05.721Z,6.28
2019-05-03T18:19:35.369Z,5.47
2019-05-03T18:22:05.290Z,4.55
2019-05-03T18:24:35.320Z,4.92
2019-05-03T18:27:04.931Z,6.65
2019-05-03T18:29:34.706Z,4.40
2019-05-03T18:32:05.467Z,2.40
2019-05-03T18:34:34.987Z,3.72
2019-05-03T18:37:04.880Z,2.87
2019-05-03T18:39:34.793Z,4.12
2019-05-03T18:42:05.835Z,3.80
2019-05-03T18:44:36.852Z,4.00
2019-05-03T18:47:07.825Z,3.33
2019-05-03T18:49:37.336Z,7.92
2019-05-03T18:52:06.879Z,3.95
2019-05-03T18:54:36.323Z,5.40
2019-05-03T18:57:05.794Z,4.62
2019-05-03T18:59:35.227Z,5.03
2019-05-03T19:02:05.443Z,10.20
2019-05-03T19:04:45.042Z,19.32
2019-05-03T19:07:24.815Z,7.28
2019-05-03T19:10:01.858Z,7.78
2019-05-03T19:12:41.600Z,9.13
2019-05-03T19:15:12.002Z,8.28
2019-05-03T19:17:42.971Z,11.70
2019-05-03T19:20:17.013Z,11.20
2019-05-03T19:22:46.488Z,10.70
2019-05-03T19:25:15.985Z,16.05
2019-05-03T19:27:45.326Z,14.40
2019-05-03T19:30:15.570Z,10.72
2019-05-03T19:32:45.159Z,6.15
2019-05-03T19:35:15.741Z,6.00
2019-05-03T19:37:46.633Z,8.45
2019-05-03T19:40:17.213Z,5.58
2019-05-03T19:42:46.529Z,8.35
2019-05-03T19:45:16.028Z,9.40
2019-05-03T19:47:45.359Z,6.03
2019-05-03T19:50:15.717Z,8.13
2019-05-03T19:52:58.836Z,9.25
2019-05-03T19:55:28.199Z,5.05
2019-05-03T19:57:57.519Z,6.75
2019-05-03T20:00:28.537Z,7.40
2019-05-03T20:03:08.021Z,4.33
2019-05-03T20:05:46.951Z,5.65
2019-05-03T20:08:17.922Z,3.45
2019-05-03T20:10:47.489Z,4.30
2019-05-03T20:13:16.819Z,4.08
2019-05-03T20:15:46.174Z,6.70
2019-05-03T20:18:17.875Z,5.17
2019-05-03T20:20:46.585Z,5.97
2019-05-03T20:23:15.923Z,7.20
2019-05-03T20:25:45.285Z,5.78
2019-05-03T20:28:15.397Z,13.83
2019-05-03T20:30:45.270Z,6.47
2019-05-03T20:33:14.700Z,9.63
2019-05-03T20:35:45.133Z,6.25
2019-05-03T20:38:15.268Z,9.78
2019-05-03T20:40:45.086Z,7.00
2019-05-03T20:43:16.309Z,7.83
2019-05-03T20:45:54.766Z,4.55
2019-05-03T20:48:24.981Z,7.53
2019-05-03T20:50:55.138Z,6.42
2019-05-03T20:53:25.143Z,6.85
2019-05-03T20:55:54.712Z,7.50
2019-05-03T20:58:25.206Z,6.28
2019-05-03T21:00:54.794Z,4.67
2019-05-03T21:03:24.775Z,11.73
2019-05-03T21:05:55.267Z,7.10
2019-05-03T21:08:25.434Z,9.53
2019-05-03T21:10:55.319Z,7.22
2019-05-03T21:13:25.199Z,10.20
2019-05-03T21:16:09.476Z,7.40
2019-05-03T21:18:40.544Z,5.80
2019-05-03T21:21:24.882Z,6.00
2019-05-03T21:24:05.525Z,5.42
2019-05-03T21:26:34.859Z,9.53
2019-05-03T21:29:04.765Z,6.87
2019-05-03T21:31:35.242Z,6.42
2019-05-03T21:34:05.612Z,10.30
2019-05-03T21:36:35.127Z,11.70
2019-05-03T21:39:06.362Z,19.50
2019-05-03T21:41:37.885Z,10.65
2019-05-03T21:44:06.769Z,6.50
2019-05-03T21:46:37.737Z,7.22
2019-05-03T21:49:14.918Z,8.25
2019-05-03T21:51:44.949Z,10.40
2019-05-03T21:54:15.317Z,9.60
2019-05-03T21:56:44.859Z,6.47
2019-05-03T21:59:14.292Z,6.75
2019-05-03T22:01:45.668Z,15.78
2019-05-03T22:04:15.769Z,10.20
2019-05-03T22:06:45.182Z,10.28
2019-05-03T22:09:14.686Z,10.93
2019-05-03T22:11:44.657Z,8.65
2019-05-03T22:14:15.794Z,8.30
2019-05-03T22:16:49.438Z,11.10
2019-05-03T22:19:19.541Z,11.93
2019-05-03T22:21:50.650Z,12.70
2019-05-03T22:24:30.519Z,7.35
2019-05-03T22:27:01.724Z,9.13
2019-05-03T22:29:31.164Z,8.93
2019-05-03T22:32:00.555Z,8.60
2019-05-03T22:34:29.914Z,8.65
2019-05-03T22:36:59.256Z,8.08
2019-05-03T22:39:28.613Z,9.98
2019-05-03T22:41:57.940Z,8.05
2019-05-03T22:44:27.295Z,7.92
2019-05-03T22:46:56.631Z,7.40
2019-05-03T22:49:26.247Z,9.23
2019-05-03T22:51:55.664Z,8.98
2019-05-03T22:54:25.086Z,10.98
2019-05-03T22:56:56.351Z,8.58
2019-05-03T22:59:26.456Z,7.80
2019-05-03T23:01:55.962Z,10.45
2019-05-03T23:04:26.126Z,10.80
2019-05-03T23:06:56.423Z,10.20
2019-05-03T23:18:38.638Z,11.43
2019-05-03T23:21:12.820Z,8.05
2019-05-03T23:23:52.080Z,8.90
2019-05-03T23:26:21.573Z,7.80
2019-05-03T23:28:50.904Z,7.08
2019-05-03T23:31:20.457Z,8.70
2019-05-03T23:33:49.825Z,9.05
2019-05-03T23:36:19.255Z,10.18
2019-05-03T23:38:48.583Z,12.82
2019-05-03T23:41:17.944Z,10.85
2019-05-03T23:43:47.304Z,8.73
2019-05-03T23:46:18.306Z,11.40
2019-05-03T23:48:47.638Z,12.43
2019-05-03T23:51:37.982Z,7.85
2019-05-03T23:54:07.383Z,9.88
2019-05-03T23:56:36.817Z,11.68
2019-05-03T23:59:06.220Z,8.95
